Time;durP1;ratioP1;P1;durP2;ratioP2;P2;SDS_P1;SDS_P2;PMS_P1;PMS_P2;Temp;Humidity;BMP_temperature;BMP_pressure;BME280_temperature;BME280_humidity;BME280_pressure;Samples;Min_cycle;Max_cycle;Signal;HPM_P1;HPM_P2
2021/04/16 00:00:19;;;;;;;4.22;3.35;;;;;;;11.16;49.52;99955.97;5050585;28;20083;-63
2021/04/16 00:02:45;;;;;;;4.85;2.85;;;;;;;11.05;48.95;99909.44;5050450;28;20055;-63
2021/04/16 00:05:11;;;;;;;6.63;3.63;;;;;;;10.85;48.96;99892.34;5050590;28;20485;-64
2021/04/16 00:07:37;;;;;;;6.88;2.90;;;;;;;11.29;48.80;99945.94;5050898;28;20029;-61
2021/04/16 00:10:10;;;;;;;4.93;3.45;;;;;;;11.26;49.06;99943.53;5049986;28;20035;-64
2021/04/16 00:12:36;;;;;;;6.90;3.33;;;;;;;11.09;49.06;99936.84;5039393;28;20119;-62
2021/04/16 00:15:04;;;;;;;8.13;3.60;;;;;;;11.11;49.14;99944.78;5050723;28;20124;-63
2021/04/16 00:17:29;;;;;;;5.63;3.55;;;;;;;11.04;49.52;99942.59;5050226;28;20382;-62
2021/04/16 00:19:54;;;;;;;6.95;3.47;;;;;;;11.09;49.44;99944.91;5050424;28;20127;-62
2021/04/16 00:22:20;;;;;;;6.47;3.65;;;;;;;10.62;49.41;99867.41;5049060;28;20531;-63
2021/04/16 00:24:45;;;;;;;7.35;3.42;;;;;;;11.11;48.94;99942.09;5048858;28;20068;-61
2021/04/16 00:27:11;;;;;;;4.40;2.67;;;;;;;11.19;48.94;99950.38;5050599;28;20060;-64
2021/04/16 00:29:36;;;;;;;7.15;3.15;;;;;;;11.14;48.79;99942.69;5048881;28;20047;-62
2021/04/16 00:32:02;;;;;;;6.05;2.92;;;;;;;10.96;49.34;99950.41;5049577;28;20084;-63
2021/04/16 00:34:28;;;;;;;7.80;3.50;;;;;;;10.89;49.27;99941.16;5050244;28;20044;-62
2021/04/16 00:36:54;;;;;;;6.32;3.00;;;;;;;10.89;49.34;99949.19;5056760;28;20139;-64
2021/04/16 00:39:22;;;;;;;4.00;2.85;;;;;;;10.85;49.66;99937.00;5068612;28;20039;-63
2021/04/16 00:41:48;;;;;;;7.25;2.95;;;;;;;10.78;49.75;99947.38;5058022;28;20138;-63
2021/04/16 00:44:13;;;;;;;7.70;3.15;;;;;;;10.39;49.43;99890.63;5048826;28;20400;-64
2021/04/16 00:46:51;;;;;;;5.38;2.60;;;;;;;10.75;49.56;99991.31;5050345;28;20037;-63
2021/04/16 00:49:23;;;;;;;7.60;3.10;;;;;;;10.27;50.21;99922.75;5035060;28;20140;-63
2021/04/16 00:51:51;;;;;;;4.47;2.90;;;;;;;10.70;50.04;99988.16;5039073;28;20037;-63
2021/04/16 00:54:21;;;;;;;4.20;3.08;;;;;;;10.71;49.77;99971.09;5049695;28;20064;-63
2021/04/16 00:56:49;;;;;;;4.35;3.00;;;;;;;10.63;49.99;99981.56;5049552;28;20060;-63
2021/04/16 00:59:16;;;;;;;10.43;3.60;;;;;;;10.63;49.98;99987.78;5049087;28;20468;-62
2021/04/16 01:01:42;;;;;;;7.03;2.92;;;;;;;10.60;49.80;99982.66;5050365;28;20036;-63
2021/04/16 01:04:08;;;;;;;3.83;2.28;;;;;;;10.81;49.54;99989.97;5049719;28;20045;-62
2021/04/16 01:06:33;;;;;;;7.75;3.17;;;;;;;10.63;49.64;99981.56;5048430;28;20036;-61
2021/04/16 01:08:59;;;;;;;3.70;2.60;;;;;;;10.72;49.67;99990.69;5049859;28;20045;-62
2021/04/16 01:11:26;;;;;;;5.90;2.55;;;;;;;10.57;50.21;99990.94;5050100;28;20071;-63
2021/04/16 01:13:53;;;;;;;6.75;2.65;;;;;;;10.68;49.99;99989.22;5048305;28;20037;-62
2021/04/16 01:16:22;;;;;;;5.57;3.00;;;;;;;10.61;49.73;99991.56;5049817;28;20029;-63
2021/04/16 01:18:50;;;;;;;6.25;3.13;;;;;;;10.41;50.29;99993.97;5050264;28;20047;-62
2021/04/16 01:21:20;;;;;;;10.45;2.70;;;;;;;10.41;50.47;100015.38;5049386;28;20033;-62
2021/04/16 01:24:03;;;;;;;5.97;2.85;;;;;;;10.32;50.70;100006.19;5049312;28;20564;-62
2021/04/16 01:26:36;;;;;;;6.20;3.03;;;;;;;10.41;50.49;100002.00;5050250;28;20175;-61
2021/04/16 01:29:01;;;;;;;3.03;2.65;;;;;;;10.44;50.00;99999.06;5049119;28;20049;-64
2021/04/16 01:31:28;;;;;;;4.38;2.83;;;;;;;10.43;50.31;100008.06;5048585;28;20040;-62
2021/04/16 01:33:54;;;;;;;6.90;2.80;;;;;;;10.39;49.92;99993.19;5049769;28;20044;-62
2021/04/16 01:36:24;;;;;;;3.65;2.83;;;;;;;10.45;49.68;99987.38;5059250;28;20029;-62
2021/04/16 01:38:53;;;;;;;3.40;2.55;;;;;;;10.73;49.33;100001.28;5052628;28;20041;-63
2021/04/16 01:41:19;;;;;;;5.95;2.88;;;;;;;10.68;49.47;100000.81;5052116;28;20033;-63
2021/04/16 01:43:53;;;;;;;2.42;2.22;;;;;;;10.46;49.15;99937.38;5052548;28;20045;-63
2021/04/16 01:46:20;;;;;;;4.80;2.88;;;;;;;10.70;49.26;100009.56;5053446;28;20036;-62
2021/04/16 01:48:50;;;;;;;3.50;2.67;;;;;;;10.61;49.60;100002.28;5052619;28;20505;-63
2021/04/16 01:51:23;;;;;;;4.93;2.63;;;;;;;10.69;49.46;100015.91;5053405;28;20041;-63
2021/04/16 01:53:49;;;;;;;3.60;2.72;;;;;;;10.39;49.23;99978.94;5053302;28;20500;-62
2021/04/16 01:56:15;;;;;;;9.35;2.50;;;;;;;10.60;49.10;100017.47;5052822;28;20120;-64
2021/04/16 01:58:40;;;;;;;5.32;2.55;;;;;;;10.62;49.31;100018.19;5052464;28;20037;-61
2021/04/16 02:01:07;;;;;;;5.50;2.55;;;;;;;10.72;49.06;100012.09;5053148;28;20480;-62
2021/04/16 02:03:33;;;;;;;3.88;2.42;;;;;;;10.61;49.29;99996.91;5053251;28;20057;-61
2021/04/16 02:05:59;;;;;;;3.85;2.70;;;;;;;10.20;49.36;99933.06;5051519;28;20079;-64
2021/04/16 02:08:25;;;;;;;3.47;2.80;;;;;;;10.53;49.34;100008.22;5052739;28;20424;-62
2021/04/16 02:10:50;;;;;;;4.88;2.47;;;;;;;10.52;49.16;100011.00;5052649;28;20441;-63
2021/04/16 02:13:16;;;;;;;5.20;2.70;;;;;;;10.35;49.34;99994.38;5052643;28;20381;-61
2021/04/16 02:15:41;;;;;;;5.18;2.63;;;;;;;10.48;49.00;100015.72;5046221;28;20056;-64
2021/04/16 02:18:07;;;;;;;4.55;2.20;;;;;;;10.51;49.10;100014.66;5031385;28;20037;-62
2021/04/16 02:20:33;;;;;;;3.03;2.30;;;;;;;10.44;49.34;100019.63;5032934;28;20041;-60
2021/04/16 02:22:58;;;;;;;4.95;2.50;;;;;;;10.52;49.04;100027.06;5033447;28;20120;-64
2021/04/16 02:25:24;;;;;;;4.00;2.88;;;;;;;10.42;49.26;100009.03;5032526;28;20486;-61
2021/04/16 02:27:50;;;;;;;6.68;2.47;;;;;;;10.57;48.68;100022.19;5046645;28;20060;-62
2021/04/16 02:30:33;;;;;;;4.25;2.72;;;;;;;10.30;48.39;99959.97;5052401;28;20039;-62
2021/04/16 02:32:59;;;;;;;4.18;2.78;;;;;;;10.35;48.36;99956.91;5053408;28;20044;-61
2021/04/16 02:35:25;;;;;;;5.38;3.03;;;;;;;10.72;48.28;100021.00;5053950;28;20033;-62
2021/04/16 02:37:53;;;;;;;5.18;2.50;;;;;;;10.58;48.62;100026.56;5058234;28;20091;-62
2021/04/16 02:40:21;;;;;;;6.28;2.83;;;;;;;10.62;48.55;100028.91;5051742;28;20044;-62
2021/04/16 02:42:47;;;;;;;3.45;2.17;;;;;;;10.65;48.07;100016.25;5051929;28;20119;-61
2021/04/16 02:45:15;;;;;;;4.30;2.50;;;;;;;10.42;48.90;100033.13;5051718;28;20550;-62
2021/04/16 02:47:42;;;;;;;4.03;2.22;;;;;;;10.39;48.73;100037.81;5050166;28;20056;-63
2021/04/16 02:50:10;;;;;;;3.22;2.47;;;;;;;10.47;48.75;100030.06;5051787;28;20037;-63
2021/04/16 02:52:36;;;;;;;3.60;2.33;;;;;;;10.68;47.94;100026.72;5052049;28;20139;-63
2021/04/16 02:55:02;;;;;;;4.35;2.70;;;;;;;10.52;47.95;100019.91;5052283;28;20528;-62
2021/04/16 02:57:27;;;;;;;4.38;2.45;;;;;;;10.53;47.95;100031.44;5051751;28;20045;-63
2021/04/16 02:59:53;;;;;;;3.05;2.20;;;;;;;10.50;47.66;100026.31;5051653;28;20082;-62
2021/04/16 03:02:19;;;;;;;9.80;2.70;;;;;;;10.41;47.70;100018.03;5051490;28;20061;-62
2021/04/16 03:04:44;;;;;;;4.60;2.60;;;;;;;10.51;47.88;100036.06;5051709;28;20040;-63
2021/04/16 03:07:10;;;;;;;4.40;2.95;;;;;;;10.47;47.99;100035.44;5035578;28;20493;-63
2021/04/16 03:09:36;;;;;;;6.32;2.58;;;;;;;10.42;47.69;100035.81;5031672;28;20029;-60
2021/04/16 03:12:02;;;;;;;3.00;2.67;;;;;;;10.18;47.52;99988.53;5031599;28;20044;-62
2021/04/16 03:14:28;;;;;;;4.53;2.25;;;;;;;10.07;47.65;99991.13;5030246;28;20029;-60
2021/04/16 03:16:53;;;;;;;5.45;2.22;;;;;;;10.46;47.68;100045.31;5036356;28;20029;-62
2021/04/16 03:19:19;;;;;;;5.80;2.30;;;;;;;10.44;47.73;100038.34;5050329;28;20422;-62
2021/04/16 03:21:45;;;;;;;3.30;2.30;;;;;;;10.08;47.28;99974.13;5051487;28;20044;-63
2021/04/16 03:24:10;;;;;;;3.63;2.30;;;;;;;10.53;47.33;100048.38;5051258;28;20136;-62
2021/04/16 03:26:36;;;;;;;5.55;2.47;;;;;;;10.53;47.40;100036.78;5051448;28;20124;-57
2021/04/16 03:29:03;;;;;;;4.10;2.40;;;;;;;10.50;47.13;100050.41;5049686;28;20032;-63
2021/04/16 03:31:30;;;;;;;2.97;2.40;;;;;;;10.52;47.08;100053.81;5051522;28;20059;-62
2021/04/16 03:33:57;;;;;;;4.00;2.45;;;;;;;10.58;46.58;100061.38;5051183;28;20029;-62
2021/04/16 03:36:23;;;;;;;5.15;2.35;;;;;;;10.53;46.32;100061.75;5057426;28;20093;-63
2021/04/16 03:38:49;;;;;;;7.72;2.20;;;;;;;10.45;46.88;100048.94;5050904;28;20036;-64
2021/04/16 03:41:16;;;;;;;2.88;2.53;;;;;;;10.73;46.17;100081.63;5048564;28;20039;-60
2021/04/16 03:43:42;;;;;;;5.05;2.13;;;;;;;10.42;45.66;100046.50;5062190;28;20368;-59
2021/04/16 03:46:08;;;;;;;3.13;2.13;;;;;;;10.60;46.18;100073.69;5068810;28;20090;-57
2021/04/16 03:48:34;;;;;;;6.25;2.20;;;;;;;10.62;46.01;100076.25;5060512;28;20068;-64
2021/04/16 03:50:59;;;;;;;3.97;2.38;;;;;;;10.62;46.10;100079.78;5048670;28;20041;-64
2021/04/16 03:53:25;;;;;;;4.93;2.25;;;;;;;10.20;46.04;100013.34;5048333;28;20045;-62
2021/04/16 03:55:51;;;;;;;3.58;2.20;;;;;;;10.74;45.64;100086.00;5052791;28;20033;-61
2021/04/16 03:58:16;;;;;;;4.93;2.45;;;;;;;10.72;45.38;100085.28;5056310;28;20040;-62
2021/04/16 04:00:42;;;;;;;5.80;2.60;;;;;;;10.50;45.41;100042.38;5066395;28;20040;-62
2021/04/16 04:03:10;;;;;;;3.72;2.17;;;;;;;10.64;45.43;100090.38;5050853;28;20044;-58
2021/04/16 04:05:36;;;;;;;5.35;2.00;;;;;;;10.45;45.78;100094.47;5050642;28;20033;-63
2021/04/16 04:08:02;;;;;;;3.08;2.17;;;;;;;10.56;45.94;100109.72;5050762;28;20044;-63
2021/04/16 04:10:34;;;;;;;3.95;2.30;;;;;;;10.52;45.28;100093.97;5050202;28;20482;-62
2021/04/16 04:13:00;;;;;;;3.35;2.20;;;;;;;10.40;45.61;100093.97;5050566;28;20507;-62
2021/04/16 04:15:25;;;;;;;3.33;1.95;;;;;;;10.48;45.31;100107.59;5050641;28;20036;-62
2021/04/16 04:17:51;;;;;;;3.55;2.00;;;;;;;10.42;45.42;100101.84;5049938;28;20041;-60
2021/04/16 04:20:21;;;;;;;7.35;1.90;;;;;;;10.23;45.97;100097.00;5050256;28;20517;-62
2021/04/16 04:22:47;;;;;;;3.78;1.83;;;;;;;10.34;46.06;100105.06;5061805;28;20041;-63
2021/04/16 04:25:16;;;;;;;7.25;2.20;;;;;;;10.14;46.31;100102.09;5057604;28;20036;-61
2021/04/16 04:27:41;;;;;;;7.18;2.05;;;;;;;10.12;46.69;100109.34;5049595;28;20075;-62
2021/04/16 04:30:07;;;;;;;3.58;2.05;;;;;;;10.11;46.61;100114.84;5050103;28;20068;-68
2021/04/16 04:32:33;;;;;;;6.55;1.95;;;;;;;10.13;46.88;100124.47;5050062;28;20040;-62
2021/04/16 04:34:58;;;;;;;4.10;1.67;;;;;;;10.26;45.74;100113.72;5049577;28;20033;-60
2021/04/16 04:37:24;;;;;;;5.28;2.15;;;;;;;10.21;45.79;100123.88;5059903;28;20037;-61
2021/04/16 04:39:50;;;;;;;2.13;1.83;;;;;;;9.99;46.05;100105.91;5049501;28;20411;-68
2021/04/16 04:42:16;;;;;;;2.45;1.98;;;;;;;10.09;46.09;100104.22;5051180;28;20056;-68
2021/04/16 04:44:41;;;;;;;4.32;2.00;;;;;;;10.21;45.60;100115.84;5058406;28;20043;-68
2021/04/16 04:47:08;;;;;;;4.03;2.10;;;;;;;10.41;44.94;100132.28;5049805;28;20033;-72
2021/04/16 04:49:35;;;;;;;4.93;2.28;;;;;;;10.37;44.64;100120.06;5049399;28;20103;-63
2021/04/16 04:52:29;;;;;;;6.20;2.30;;;;;;;10.38;45.48;100121.78;5064453;28;20044;-62
2021/04/16 04:54:56;;;;;;;8.60;2.75;;;;;;;10.55;44.82;100128.56;5064689;28;20492;-62
2021/04/16 04:57:24;;;;;;;3.80;2.08;;;;;;;10.54;44.84;100126.84;5054509;28;20073;-62
2021/04/16 04:59:50;;;;;;;6.32;2.40;;;;;;;10.50;43.99;100112.84;5057144;28;20076;-70
2021/04/16 05:02:17;;;;;;;6.03;2.50;;;;;;;10.58;44.12;100126.50;5054527;28;20072;-61
2021/04/16 05:04:43;;;;;;;4.63;2.10;;;;;;;10.73;43.59;100119.13;5055641;28;20041;-59
2021/04/16 05:07:09;;;;;;;7.07;2.35;;;;;;;10.37;43.76;100061.19;5052237;28;20182;-60
2021/04/16 05:09:34;;;;;;;3.38;2.17;;;;;;;10.32;43.76;100056.16;5050349;28;20036;-62
2021/04/16 05:12:00;;;;;;;5.40;2.20;;;;;;;10.84;43.16;100133.50;5053611;28;20040;-59
2021/04/16 05:14:26;;;;;;;3.00;2.00;;;;;;;10.96;42.64;100113.81;5053712;28;20094;-60
2021/04/16 05:16:52;;;;;;;6.40;2.08;;;;;;;11.67;41.43;100114.56;5052323;28;20390;-61
2021/04/16 05:19:18;;;;;;;4.88;2.20;;;;;;;12.15;39.62;100054.31;5066066;28;20033;-62
2021/04/16 05:21:43;;;;;;;3.75;1.95;;;;;;;12.93;39.00;100134.63;5058523;28;20040;-60
2021/04/16 05:24:11;;;;;;;3.80;2.03;;;;;;;13.18;37.82;100108.31;5058666;28;20100;-60
2021/04/16 05:26:38;;;;;;;5.30;2.08;;;;;;;13.34;38.31;100127.50;5066736;28;20032;-62
2021/04/16 05:29:04;;;;;;;9.60;2.60;;;;;;;13.45;37.14;100106.91;5063484;28;20502;-63
2021/04/16 05:31:30;;;;;;;6.68;2.10;;;;;;;13.69;36.83;100103.88;5062291;28;20035;-63
2021/04/16 05:33:56;;;;;;;4.50;2.13;;;;;;;14.17;35.64;100112.19;5069504;28;20042;-61
2021/04/16 05:36:22;;;;;;;5.47;2.30;;;;;;;14.45;34.75;100107.78;5058916;28;20036;-63
2021/04/16 05:38:48;;;;;;;5.07;2.10;;;;;;;14.07;34.95;100052.94;5059727;28;20078;-63
2021/04/16 05:41:14;;;;;;;10.07;2.67;;;;;;;14.62;34.70;100118.84;5064204;28;20063;-60
2021/04/16 05:43:40;;;;;;;8.82;2.20;;;;;;;14.58;34.23;100112.88;5068963;28;20182;-60
2021/04/16 05:46:05;;;;;;;6.65;2.35;;;;;;;14.52;34.53;100128.78;5052364;28;20036;-60
2021/04/16 05:48:31;;;;;;;6.45;2.45;;;;;;;14.71;33.63;100131.50;5052687;28;20123;-62
2021/04/16 05:50:56;;;;;;;6.70;3.58;;;;;;;14.98;33.24;100108.34;5057161;28;20040;-62
2021/04/16 05:53:22;;;;;;;8.07;2.58;;;;;;;15.18;32.80;100116.34;5065796;28;20031;-62
2021/04/16 05:55:48;;;;;;;6.50;2.58;;;;;;;15.47;32.35;100126.19;5062346;28;20036;-63
2021/04/16 05:58:13;;;;;;;7.22;2.45;;;;;;;16.36;31.16;100110.31;5070310;28;20040;-57
2021/04/16 06:00:39;;;;;;;7.20;2.50;;;;;;;16.94;29.60;100118.91;5059389;28;20119;-59
2021/04/16 06:03:05;;;;;;;3.22;2.47;;;;;;;16.90;29.67;100129.19;5071403;28;20044;-60
2021/04/16 06:05:30;;;;;;;6.72;2.55;;;;;;;16.07;30.43;100127.59;5059382;28;20052;-61
2021/04/16 06:07:56;;;;;;;6.05;2.30;;;;;;;15.59;31.55;100135.78;5072585;28;20043;-61
2021/04/16 06:10:24;;;;;;;5.60;2.20;;;;;;;15.44;31.71;100110.31;5058727;28;20493;-63
2021/04/16 06:12:50;;;;;;;2.90;1.98;;;;;;;15.48;31.50;100130.59;5059706;28;20064;-62
2021/04/16 06:15:22;;;;;;;4.70;2.60;;;;;;;15.01;32.56;100142.22;5064403;28;20495;-60
2021/04/16 06:17:47;;;;;;;7.60;2.45;;;;;;;14.99;32.49;100125.34;5065022;28;20477;-61
2021/04/16 06:20:18;;;;;;;3.97;2.65;;;;;;;15.25;32.33;100140.88;5053064;28;20024;-60
2021/04/16 06:22:45;;;;;;;9.77;2.55;;;;;;;16.28;30.91;100118.38;5052814;28;20028;-60
2021/04/16 06:25:11;;;;;;;10.95;3.20;;;;;;;18.02;27.89;100124.91;5056802;28;20041;-59
2021/04/16 06:27:37;;;;;;;9.45;2.65;;;;;;;19.13;26.48;100113.78;5056340;28;20029;-59
2021/04/16 06:30:05;;;;;;;7.50;2.60;;;;;;;19.55;25.61;100101.78;5051669;28;20032;-59
2021/04/16 06:32:31;;;;;;;5.15;2.40;;;;;;;19.80;25.69;100094.34;5063756;28;20041;-57
2021/04/16 06:34:56;;;;;;;11.20;2.53;;;;;;;19.07;25.97;100115.31;5057832;28;20039;-60
2021/04/16 06:37:22;;;;;;;8.27;2.70;;;;;;;18.32;26.93;100128.00;5067688;28;20032;-58
2021/04/16 06:39:47;;;;;;;4.65;2.65;;;;;;;17.75;27.69;100129.53;5069016;28;20152;-58
2021/04/16 06:42:21;;;;;;;9.32;2.58;;;;;;;17.41;28.25;100130.41;5049036;28;20392;-60
2021/04/16 06:44:47;;;;;;;6.40;2.60;;;;;;;16.94;28.64;100129.75;5051073;28;20570;-61
2021/04/16 06:47:26;;;;;;;5.25;2.70;;;;;;;16.41;29.51;100129.66;5051490;28;20099;-60
2021/04/16 06:49:57;;;;;;;7.47;2.58;;;;;;;16.20;29.76;100120.00;5052028;28;20202;-57
2021/04/16 06:52:29;;;;;;;9.95;2.83;;;;;;;16.25;30.21;100137.59;5051919;28;20155;-58
2021/04/16 06:55:13;;;;;;;11.95;2.72;;;;;;;16.90;29.76;100133.78;5051932;28;20519;-58
2021/04/16 06:57:53;;;;;;;8.55;3.08;;;;;;;17.63;28.36;100135.25;5051322;28;20025;-62
2021/04/16 07:00:48;;;;;;;11.25;3.15;;;;;;;19.32;25.99;100124.25;5051628;28;20112;-59
2021/04/16 07:03:23;;;;;;;9.03;3.10;;;;;;;19.92;24.88;100116.56;5052100;28;20041;-55
2021/04/16 07:05:53;;;;;;;4.78;2.60;;;;;;;20.43;23.99;100119.81;5050107;28;20342;-57
2021/04/16 07:08:26;;;;;;;9.77;2.80;;;;;;;21.83;22.58;100082.16;5049381;28;20109;-58
2021/04/16 07:10:55;;;;;;;9.55;3.35;;;;;;;24.19;20.43;100106.56;5030840;28;20048;-60
2021/04/16 07:13:36;;;;;;;8.23;3.17;;;;;;;25.15;18.80;100098.16;5031765;28;20034;-60
2021/04/16 07:16:03;;;;;;;8.73;3.33;;;;;;;24.02;19.34;100110.72;5030545;28;20037;-59
2021/04/16 07:18:34;;;;;;;5.32;3.30;;;;;;;23.92;19.94;100108.34;5035521;28;20049;-60
2021/04/16 07:21:00;;;;;;;8.88;3.58;;;;;;;24.28;18.89;100112.69;5051219;28;20037;-58
2021/04/16 07:23:26;;;;;;;8.90;3.22;;;;;;;25.08;18.55;100102.81;5050066;28;20175;-60
2021/04/16 07:26:04;;;;;;;6.57;3.22;;;;;;;25.41;18.41;100106.56;5051346;28;20123;-58
2021/04/16 07:28:29;;;;;;;10.90;3.45;;;;;;;26.44;17.04;100113.06;5051400;28;20068;-60
2021/04/16 07:30:55;;;;;;;5.85;3.20;;;;;;;27.87;15.81;100105.97;5049615;28;20075;-62
2021/04/16 07:33:32;;;;;;;3.92;2.55;;;;;;;29.34;14.62;100117.69;5050351;28;20098;-59
2021/04/16 07:36:20;;;;;;;8.18;3.22;;;;;;;28.27;14.86;100092.78;5050935;28;20029;-60
2021/04/16 07:39:12;;;;;;;14.15;3.08;;;;;;;26.41;17.20;100109.94;5051139;28;20037;-62
2021/04/16 07:41:43;;;;;;;7.75;3.00;;;;;;;27.57;15.69;100117.78;5050885;28;20037;-60
2021/04/16 07:44:33;;;;;;;6.97;3.22;;;;;;;27.37;15.35;100113.31;5051192;28;20071;-60
2021/04/16 07:47:01;;;;;;;7.75;3.22;;;;;;;25.56;16.80;100087.13;5050905;28;20028;-62
2021/04/16 07:49:37;;;;;;;9.77;3.17;;;;;;;24.27;18.53;100112.88;5050838;28;20586;-61
2021/04/16 07:52:45;;;;;;;9.75;2.90;;;;;;;23.88;18.77;100131.69;5050661;28;20055;-60
2021/04/16 07:55:24;;;;;;;9.25;3.28;;;;;;;21.68;20.85;100133.09;5008697;28;20045;-62
2021/04/16 07:57:50;;;;;;;10.27;3.28;;;;;;;21.06;21.59;100133.25;5009428;28;20048;-59
2021/04/16 08:00:33;;;;;;;6.78;3.40;;;;;;;20.45;22.77;100131.38;5036377;28;20036;-59
2021/04/16 08:03:17;;;;;;;9.65;3.10;;;;;;;20.66;22.41;100130.69;5048948;28;20417;-59
2021/04/16 08:05:59;;;;;;;8.48;3.05;;;;;;;20.19;23.25;100129.84;5046664;28;20110;-61
2021/04/16 08:08:27;;;;;;;7.07;3.30;;;;;;;19.81;23.24;100138.69;5056258;28;20042;-59
2021/04/16 08:11:04;;;;;;;10.48;3.63;;;;;;;19.32;24.16;100134.25;5060533;28;20048;-57
2021/04/16 08:13:33;;;;;;;11.93;3.38;;;;;;;19.05;24.76;100129.06;5042314;28;20111;-53
2021/04/16 08:16:27;;;;;;;8.50;3.25;;;;;;;18.61;25.21;100148.38;5059792;28;20500;-58
2021/04/16 08:18:58;;;;;;;8.00;3.60;;;;;;;18.30;25.87;100146.28;5022190;28;20048;-60
2021/04/16 08:21:25;;;;;;;7.57;3.42;;;;;;;17.78;25.96;100037.13;5048318;28;20033;-59
2021/04/16 08:24:05;;;;;;;7.63;3.75;;;;;;;18.84;25.25;100120.59;5049547;28;20161;-58
2021/04/16 08:26:37;;;;;;;12.90;4.03;;;;;;;18.68;25.41;100134.97;5046047;28;20156;-58
2021/04/16 08:29:11;;;;;;;7.35;4.03;;;;;;;18.54;25.49;100109.38;5045449;28;20120;-60
2021/04/16 08:32:04;;;;;;;9.02;3.83;;;;;;;19.12;25.10;100136.50;5050477;28;20451;-62
2021/04/16 08:34:43;;;;;;;10.57;4.07;;;;;;;19.50;24.58;100123.16;5062634;28;20047;-63
2021/04/16 08:37:20;;;;;;;13.13;4.78;;;;;;;19.77;24.56;100123.72;5051396;28;20031;-64
2021/04/16 08:39:47;;;;;;;10.82;4.38;;;;;;;19.78;24.20;100120.84;5044469;28;20564;-63
2021/04/16 08:42:18;;;;;;;11.57;4.55;;;;;;;19.81;24.54;100119.66;5043645;28;20205;-60
2021/04/16 08:44:54;;;;;;;8.75;4.38;;;;;;;20.00;24.17;100129.25;5058390;28;20036;-58
2021/04/16 08:47:48;;;;;;;7.57;3.97;;;;;;;20.30;23.94;100132.13;5046864;28;20132;-65
2021/04/16 08:50:14;;;;;;;7.07;3.95;;;;;;;19.62;23.51;100064.75;5049547;28;20075;-61
2021/04/16 08:52:49;;;;;;;13.05;4.20;;;;;;;19.78;24.37;100128.16;5045288;28;20073;-63
2021/04/16 08:55:35;;;;;;;9.63;4.05;;;;;;;19.62;24.70;100119.06;5046336;28;20037;-63
2021/04/16 08:58:26;;;;;;;9.68;3.90;;;;;;;19.50;24.67;100107.72;5036652;28;20069;-66
2021/04/16 09:01:14;;;;;;;8.07;4.68;;;;;;;19.52;24.74;100110.25;5051476;28;20041;-62
2021/04/16 09:04:14;;;;;;;7.82;4.07;;;;;;;19.85;24.58;100111.97;5050613;28;20082;-62
2021/04/16 09:06:39;;;;;;;12.05;3.75;;;;;;;19.70;24.73;100117.31;5063647;28;20115;-62
2021/04/16 09:09:10;;;;;;;10.52;3.75;;;;;;;19.67;24.73;100118.53;5064248;28;20850;-64
2021/04/16 09:11:41;;;;;;;11.32;3.67;;;;;;;19.82;24.84;100106.91;5056488;28;20101;-64
2021/04/16 09:14:32;;;;;;;6.20;3.25;;;;;;;20.07;24.03;100116.66;5057716;28;20511;-64
2021/04/16 09:16:58;;;;;;;6.90;4.15;;;;;;;19.93;24.09;100103.84;5052337;28;20395;-62
2021/04/16 09:19:26;;;;;;;10.55;4.55;;;;;;;19.78;24.50;100109.16;5064457;28;20489;-63
2021/04/16 09:22:04;;;;;;;10.85;3.67;;;;;;;19.68;24.69;100116.66;5056367;28;20028;-63
2021/04/16 09:24:41;;;;;;;7.95;4.05;;;;;;;19.54;25.10;100113.66;5062887;28;20058;-61
2021/04/16 09:27:34;;;;;;;11.75;4.40;;;;;;;19.69;24.66;100115.63;5066278;28;20035;-63
2021/04/16 09:30:00;;;;;;;6.40;3.92;;;;;;;19.58;25.16;100108.72;5049625;28;20049;-63
2021/04/16 09:32:32;;;;;;;13.55;4.55;;;;;;;19.62;24.90;100100.03;5056933;28;20047;-61
2021/04/16 09:34:58;;;;;;;12.43;4.45;;;;;;;19.58;25.00;100089.69;5045337;28;20043;-62
2021/04/16 09:37:37;;;;;;;12.88;4.45;;;;;;;19.51;25.19;100103.13;5046505;28;20033;-61
2021/04/16 09:40:09;;;;;;;9.20;4.40;;;;;;;19.62;25.24;100107.34;5045805;28;20034;-60
2021/04/16 09:42:36;;;;;;;9.15;4.15;;;;;;;19.78;25.02;100111.88;5057803;28;20114;-62
2021/04/16 09:45:04;;;;;;;9.38;4.10;;;;;;;19.75;24.81;100098.63;5059313;28;20040;-62
2021/04/16 09:47:42;;;;;;;9.30;4.15;;;;;;;19.80;24.85;100101.66;5055057;28;20040;-59
2021/04/16 09:50:21;;;;;;;12.23;4.10;;;;;;;19.78;24.80;100069.22;5057181;28;20128;-58
2021/04/16 09:52:50;;;;;;;10.90;4.38;;;;;;;20.07;24.51;100094.91;5066088;28;20119;-58
2021/04/16 09:55:40;;;;;;;7.85;4.32;;;;;;;20.20;24.51;100093.47;5068218;28;20075;-61
2021/04/16 09:58:06;;;;;;;8.10;4.22;;;;;;;20.02;24.56;100085.63;5055000;28;20464;-60
2021/04/16 10:00:32;;;;;;;6.78;4.00;;;;;;;20.20;24.42;100091.59;5061259;28;20053;-59
2021/04/16 10:03:23;;;;;;;14.07;4.15;;;;;;;20.53;24.24;100105.97;5070681;28;20426;-59
2021/04/16 10:05:50;;;;;;;10.48;3.85;;;;;;;20.09;24.01;100100.16;5039066;28;20033;-57
2021/04/16 10:08:30;;;;;;;11.48;3.33;;;;;;;20.18;24.07;100118.09;5058279;28;20032;-58
2021/04/16 10:11:06;;;;;;;13.30;3.92;;;;;;;19.50;24.95;100055.28;5056357;28;20036;-59
2021/04/16 10:13:39;;;;;;;8.93;4.00;;;;;;;19.89;24.81;100108.75;5048362;28;20033;-62
2021/04/16 10:16:18;;;;;;;11.43;3.55;;;;;;;20.09;24.58;100121.91;5063184;28;20039;-57
2021/04/16 10:18:44;;;;;;;10.32;3.25;;;;;;;19.54;24.95;100043.06;5053096;28;20068;-58
2021/04/16 10:21:20;;;;;;;7.57;3.67;;;;;;;20.03;24.91;100109.88;5067709;28;20063;-61
2021/04/16 10:33:16;;;;;;;8.32;3.40;;;;;;;20.25;24.35;100112.81;5057485;28;20047;-55
2021/04/16 12:38:35;;;;;;;16.17;4.37;;;;;;;19.90;25.39;100115.88;5055890;28;20475;-67
2021/04/16 12:41:07;;;;;;;14.40;4.20;;;;;;;19.93;25.16;100101.94;5065843;28;20032;-66
2021/04/16 12:43:32;;;;;;;12.27;4.55;;;;;;;19.93;25.35;100110.09;5052932;28;20400;-66
2021/04/16 12:45:59;;;;;;;11.68;4.45;;;;;;;20.01;25.24;100108.34;5059507;28;20051;-66
2021/04/16 12:48:25;;;;;;;14.30;5.32;;;;;;;19.68;25.40;100035.16;5055517;28;20064;-67
2021/04/16 12:50:51;;;;;;;13.18;4.40;;;;;;;20.20;24.87;100105.19;5067005;28;20040;-67
2021/04/16 12:53:17;;;;;;;10.95;4.28;;;;;;;20.27;25.08;100109.91;5052969;28;20056;-65
2021/04/16 12:55:43;;;;;;;10.65;4.13;;;;;;;20.28;24.54;100100.72;5054428;28;20087;-67
2021/04/16 12:58:16;;;;;;;13.05;4.43;;;;;;;20.25;24.88;100106.50;5060838;28;20416;-68
2021/04/16 13:00:43;;;;;;;6.65;4.25;;;;;;;20.16;24.96;100111.19;5053703;28;20082;-67
2021/04/16 13:03:16;;;;;;;10.20;4.18;;;;;;;19.90;25.10;100072.38;5066080;28;20566;-67
2021/04/16 13:05:43;;;;;;;9.25;4.10;;;;;;;19.68;25.44;100051.47;5056619;28;20060;-67
2021/04/16 13:08:09;;;;;;;7.70;4.00;;;;;;;19.99;25.58;100088.66;5059614;28;20041;-66
2021/04/16 13:10:35;;;;;;;14.57;4.10;;;;;;;20.04;25.06;100099.88;5054392;28;20057;-66
2021/04/16 13:13:01;;;;;;;11.55;4.53;;;;;;;20.04;25.25;100094.44;5065655;28;20504;-65
2021/04/16 13:15:27;;;;;;;7.68;4.03;;;;;;;20.07;25.18;100083.19;5055631;28;20047;-67
2021/04/16 13:18:04;;;;;;;9.88;3.80;;;;;;;20.25;25.23;100082.03;5064573;28;20037;-64
2021/04/16 13:20:29;;;;;;;9.07;4.18;;;;;;;20.20;25.11;100072.56;5055111;28;20037;-67
2021/04/16 13:22:55;;;;;;;10.30;4.88;;;;;;;20.33;24.84;100082.81;5065693;28;20043;-66
2021/04/16 13:25:26;;;;;;;11.70;4.25;;;;;;;20.23;24.92;100082.22;5054561;28;20025;-62
2021/04/16 13:27:52;;;;;;;7.30;3.47;;;;;;;20.30;24.95;100075.03;5058843;28;20055;-66
2021/04/16 13:30:26;;;;;;;8.60;4.20;;;;;;;20.24;25.13;100094.81;5062035;28;20041;-68
2021/04/16 13:32:56;;;;;;;13.02;3.78;;;;;;;20.13;25.16;100078.91;5056639;28;20037;-64
2021/04/16 13:35:49;;;;;;;10.13;3.92;;;;;;;20.45;24.65;100087.84;5068248;28;20040;-64
2021/04/16 13:38:21;;;;;;;9.32;3.83;;;;;;;20.17;25.13;100080.25;5052366;28;20045;-68
2021/04/16 13:40:47;;;;;;;7.20;3.85;;;;;;;20.02;25.43;100077.47;5069478;28;20582;-66
2021/04/16 13:43:13;;;;;;;12.18;4.00;;;;;;;19.91;25.62;100084.97;5057197;28;20115;-67
2021/04/16 13:45:39;;;;;;;9.60;3.97;;;;;;;19.76;25.52;100073.13;5061624;28;20131;-66
2021/04/16 13:48:05;;;;;;;11.35;4.10;;;;;;;19.90;25.30;100083.25;5062327;28;20064;-68